Time;durP1;ratioP1;P1;durP2;ratioP2;P2;SDS_P1;SDS_P2;PMS_P1;PMS_P2;Temp;Humidity;BMP_temperature;BMP_pressure;BME280_temperature;BME280_humidity;BME280_pressure;Samples;Min_cycle;Max_cycle;Signal;HPM_P1;HPM_P2
2022/12/28 00:01:23;;;;;;;6.50;3.00;;;;;;;1.79;77.26;97542.17;105567;1297;22467;-85
2022/12/28 00:03:55;;;;;;;5.10;3.10;;;;;;;1.82;77.17;97545.60;105600;1303;24815;-85
2022/12/28 00:06:27;;;;;;;6.60;3.60;;;;;;;1.81;77.06;97544.59;103740;1301;2433663;-85
2022/12/28 00:08:58;;;;;;;6.00;2.70;;;;;;;1.80;77.19;97544.04;104293;1303;1788328;-86
2022/12/28 00:11:30;;;;;;;8.20;3.30;;;;;;;1.78;77.22;97539.36;105543;1301;22470;-85
2022/12/28 00:14:02;;;;;;;8.40;2.70;;;;;;;1.77;77.15;97542.75;105559;1303;24253;-86
2022/12/28 00:16:38;;;;;;;5.50;2.70;;;;;;;1.78;77.13;97541.45;100423;1303;5020826;-86
2022/12/28 00:19:13;;;;;;;5.50;3.30;;;;;;;1.79;77.14;97540.85;105523;1299;23977;-85
2022/12/28 00:21:45;;;;;;;7.10;3.80;;;;;;;1.78;77.15;97545.68;105602;1303;22689;-85
2022/12/28 00:24:21;;;;;;;6.90;3.50;;;;;;;1.78;77.06;97538.52;105674;1303;22565;-85
2022/12/28 00:26:55;;;;;;;6.90;2.80;;;;;;;1.78;77.16;97536.43;100470;1304;5427039;-85
2022/12/28 00:29:27;;;;;;;6.80;3.30;;;;;;;1.77;77.05;97534.95;105674;1303;24269;-85
2022/12/28 00:31:58;;;;;;;5.00;2.90;;;;;;;1.77;76.88;97534.95;105662;1301;22542;-85
2022/12/28 00:34:29;;;;;;;8.20;4.00;;;;;;;1.76;76.91;97532.17;105695;1288;25264;-85
2022/12/28 00:37:00;;;;;;;6.30;3.20;;;;;;;1.74;77.00;97532.56;104192;1303;1701666;-85
2022/12/28 00:39:34;;;;;;;6.70;2.30;;;;;;;1.72;76.95;97531.20;105580;1304;22510;-86
2022/12/28 00:42:05;;;;;;;6.50;3.50;;;;;;;1.73;77.07;97531.73;105589;1301;22487;-85
2022/12/28 00:44:36;;;;;;;7.00;3.20;;;;;;;1.73;76.99;97534.83;105568;1295;24254;-85
2022/12/28 00:47:07;;;;;;;6.40;3.20;;;;;;;1.72;77.03;97537.73;102346;1304;2282650;-85
2022/12/28 00:49:38;;;;;;;6.70;3.70;;;;;;;1.71;77.10;97540.30;105571;1303;22530;-85
2022/12/28 00:52:11;;;;;;;9.80;3.80;;;;;;;1.68;77.12;97542.77;105572;1294;22476;-85
2022/12/28 00:54:42;;;;;;;6.20;3.00;;;;;;;1.64;77.08;97544.02;105577;1303;25379;-85
2022/12/28 00:57:13;;;;;;;6.60;3.50;;;;;;;1.62;77.20;97542.08;104284;1300;1579404;-84
2022/12/28 00:59:44;;;;;;;5.60;3.10;;;;;;;1.58;77.34;97540.03;105594;1298;25525;-85
2022/12/28 01:02:17;;;;;;;6.00;3.10;;;;;;;1.56;77.22;97541.63;105577;1303;22463;-85
2022/12/28 01:04:48;;;;;;;6.00;3.20;;;;;;;1.52;77.22;97544.70;105614;1296;23931;-85
2022/12/28 01:07:19;;;;;;;7.00;3.50;;;;;;;1.46;77.50;97549.05;105591;1285;29271;-84
2022/12/28 01:09:50;;;;;;;8.60;3.40;;;;;;;1.41;77.61;97552.32;105580;1300;22495;-85
2022/12/28 01:12:21;;;;;;;6.10;3.30;;;;;;;1.37;77.71;97550.94;105578;1288;22518;-85
2022/12/28 01:14:52;;;;;;;8.90;3.80;;;;;;;1.32;77.84;97544.46;105568;1295;23949;-85
2022/12/28 01:17:23;;;;;;;5.40;3.20;;;;;;;1.26;77.88;97546.36;101588;1287;3611038;-84
2022/12/28 01:19:54;;;;;;;6.90;3.80;;;;;;;1.18;78.17;97547.27;105559;1303;23148;-85
2022/12/28 01:22:25;;;;;;;7.30;3.50;;;;;;;1.11;78.22;97549.88;105649;1304;22471;-85
2022/12/28 01:24:56;;;;;;;6.60;3.10;;;;;;;1.05;78.19;97553.64;105628;1304;22731;-85
2022/12/28 01:27:27;;;;;;;7.30;3.60;;;;;;;0.99;78.43;97550.31;99989;1303;5461977;-84
2022/12/28 01:29:58;;;;;;;6.80;3.80;;;;;;;0.94;78.52;97552.29;105544;1285;22522;-84
2022/12/28 01:32:30;;;;;;;5.20;2.90;;;;;;;0.92;78.87;97547.34;105560;1303;22465;-85
2022/12/28 01:35:01;;;;;;;5.90;3.20;;;;;;;0.91;78.63;97547.95;105545;1295;23232;-85
2022/12/28 01:37:32;;;;;;;6.20;3.10;;;;;;;0.89;78.69;97544.45;101606;1306;5226565;-85
2022/12/28 01:40:04;;;;;;;5.30;2.20;;;;;;;0.88;78.87;97542.96;105568;1304;24266;-84
2022/12/28 01:42:38;;;;;;;5.00;2.70;;;;;;;0.91;78.84;97546.38;105666;1304;24233;-85
2022/12/28 01:45:30;;;;;;;6.50;3.40;;;;;;;0.92;78.72;97547.63;105625;1285;23854;-84
2022/12/28 01:48:01;;;;;;;5.80;3.10;;;;;;;0.85;79.09;97541.54;102990;1305;1845329;-84
2022/12/28 01:50:34;;;;;;;6.60;3.00;;;;;;;0.75;78.95;97539.36;105564;1303;22442;-84
2022/12/28 01:53:06;;;;;;;6.10;3.30;;;;;;;0.68;79.52;97535.28;105608;1303;22494;-85
2022/12/28 01:55:40;;;;;;;8.40;3.60;;;;;;;0.64;79.71;97536.88;105619;1302;22595;-83
2022/12/28 01:58:15;;;;;;;7.20;3.80;;;;;;;0.59;79.79;97535.79;104096;1294;2024776;-84
2022/12/28 02:00:46;;;;;;;7.40;3.60;;;;;;;0.57;80.03;97540.79;105785;1304;22466;-84
2022/12/28 02:03:20;;;;;;;6.50;3.40;;;;;;;0.54;80.33;97539.18;105747;1307;22533;-85
2022/12/28 02:05:55;;;;;;;7.30;3.20;;;;;;;0.52;80.12;97537.41;102510;1303;2508414;-85
2022/12/28 02:08:36;;;;;;;9.70;3.50;;;;;;;0.48;80.57;97536.15;104396;1292;1801283;-84
2022/12/28 02:11:11;;;;;;;5.00;3.20;;;;;;;0.45;80.71;97538.06;105591;1304;22556;-84
2022/12/28 02:13:44;;;;;;;6.60;3.50;;;;;;;0.42;80.70;97535.67;105578;1292;22547;-84
2022/12/28 02:16:16;;;;;;;6.90;3.40;;;;;;;0.41;80.81;97537.28;103952;1301;2253288;-85
2022/12/28 02:18:48;;;;;;;7.40;3.20;;;;;;;0.38;81.02;97532.38;105547;1294;26420;-85
2022/12/28 02:21:26;;;;;;;8.20;3.70;;;;;;;0.34;81.35;97531.84;105570;1302;22526;-85
2022/12/28 02:24:36;;;;;;;4.70;3.20;;;;;;;0.30;81.46;97528.66;105626;1294;24174;-85
2022/12/28 02:27:21;;;;;;;5.40;3.00;;;;;;;0.28;81.49;97518.29;102354;1303;2365541;-85
2022/12/28 02:30:06;;;;;;;6.60;3.60;;;;;;;0.25;81.57;97520.54;101734;1303;5192670;-84
2022/12/28 02:33:05;;;;;;;7.00;3.60;;;;;;;0.24;81.49;97523.10;105576;1304;22515;-84
2022/12/28 02:35:44;;;;;;;9.40;3.60;;;;;;;0.21;81.76;97528.45;105560;1299;22756;-85
2022/12/28 02:38:20;;;;;;;6.10;3.10;;;;;;;0.17;81.83;97524.03;105519;1302;23908;-84
2022/12/28 02:40:58;;;;;;;8.30;3.70;;;;;;;0.15;81.66;97520.77;105579;1304;24254;-84
2022/12/28 02:43:31;;;;;;;7.00;3.00;;;;;;;0.13;81.83;97526.51;105567;1294;22476;-84
2022/12/28 02:52:08;;;;;;;4.30;2.70;;;;;;;0.13;82.35;97513.58;105547;1304;25376;-84
2022/12/28 02:58:04;;;;;;;6.40;3.30;;;;;;;0.08;82.53;97507.14;100647;1304;5079104;-84
2022/12/28 03:00:51;;;;;;;6.80;3.40;;;;;;;0.06;82.45;97515.52;105586;1302;22471;-84
2022/12/28 03:03:32;;;;;;;6.60;3.20;;;;;;;0.07;82.69;97508.66;105567;1304;22477;-85
2022/12/28 03:09:16;;;;;;;5.50;2.50;;;;;;;0.11;82.87;97501.17;105511;1307;22499;-85
2022/12/28 03:11:53;;;;;;;5.60;2.70;;;;;;;0.12;82.54;97496.69;105586;1298;22463;-84
2022/12/28 03:14:28;;;;;;;5.30;2.70;;;;;;;0.12;82.73;97492.20;105550;1305;23398;-84
2022/12/28 03:31:23;;;;;;;6.30;3.40;;;;;;;0.13;82.87;97467.82;105544;1282;23744;-84
2022/12/28 03:34:05;;;;;;;4.70;2.60;;;;;;;0.12;82.96;97467.14;105560;1290;22555;-84
2022/12/28 03:36:50;;;;;;;7.80;3.40;;;;;;;0.11;83.08;97465.13;103858;1285;2309500;-84
2022/12/28 03:39:31;;;;;;;6.60;3.10;;;;;;;0.10;82.92;97467.73;104047;1304;2274446;-84
2022/12/28 03:45:03;;;;;;;6.20;2.80;;;;;;;0.11;83.01;97460.44;105596;1304;22512;-84
2022/12/28 03:47:35;;;;;;;8.20;3.50;;;;;;;0.12;83.17;97463.08;105467;1302;24777;-84
2022/12/28 03:50:07;;;;;;;4.90;2.90;;;;;;;0.13;83.07;97465.66;102440;1284;4464858;-84
2022/12/28 03:52:41;;;;;;;7.50;3.20;;;;;;;0.14;83.15;97461.73;105560;1303;22521;-84
2022/12/28 03:55:14;;;;;;;7.20;3.50;;;;;;;0.11;82.92;97459.63;105616;1303;22469;-84
2022/12/28 03:57:45;;;;;;;6.40;3.00;;;;;;;0.10;83.05;97463.68;105512;1300;22471;-84
2022/12/28 04:00:16;;;;;;;3.50;2.00;;;;;;;0.11;83.05;97466.77;105532;1281;46917;-84
2022/12/28 04:02:47;;;;;;;7.90;2.80;;;;;;;0.09;82.93;97473.42;105638;1303;22495;-85
2022/12/28 04:05:20;;;;;;;5.40;2.70;;;;;;;0.06;82.75;97470.88;105776;1285;22481;-85
2022/12/28 04:07:51;;;;;;;5.40;2.80;;;;;;;0.04;82.79;97473.42;104360;1303;1851003;-84
2022/12/28 04:10:23;;;;;;;4.30;2.80;;;;;;;0.02;82.99;97474.06;105608;1304;22520;-84
2022/12/28 04:12:57;;;;;;;4.90;2.20;;;;;;;-0.01;82.64;97473.07;105721;1302;22487;-84
2022/12/28 04:15:28;;;;;;;7.60;2.30;;;;;;;-0.10;82.30;97480.83;105675;1297;24378;-85
2022/12/28 04:18:01;;;;;;;5.90;2.40;;;;;;;-0.18;82.26;97483.05;101881;1291;5043441;-83
2022/12/28 04:20:33;;;;;;;5.20;2.70;;;;;;;-0.26;82.06;97479.98;105601;1303;24281;-84
2022/12/28 04:23:04;;;;;;;3.30;2.20;;;;;;;-0.27;82.44;97478.38;105626;1294;24491;-84
2022/12/28 04:25:37;;;;;;;4.10;2.00;;;;;;;-0.22;82.50;97475.23;105578;1295;23247;-85
2022/12/28 04:28:08;;;;;;;4.30;2.70;;;;;;;-0.20;82.82;97467.23;100045;1296;5414862;-85
2022/12/28 04:30:40;;;;;;;4.70;2.30;;;;;;;-0.20;82.78;97462.19;105549;1295;22498;-84
2022/12/28 04:33:11;;;;;;;5.90;2.80;;;;;;;-0.22;82.90;97458.96;105570;1302;22467;-84
2022/12/28 04:35:42;;;;;;;5.70;2.70;;;;;;;-0.22;82.93;97454.11;105590;1294;22502;-84
2022/12/28 04:38:13;;;;;;;5.80;2.80;;;;;;;-0.24;82.75;97460.67;102518;1300;2299226;-84
2022/12/28 04:40:44;;;;;;;6.10;2.70;;;;;;;-0.27;83.12;97458.75;105549;1303;25225;-84
2022/12/28 04:43:15;;;;;;;5.00;2.80;;;;;;;-0.26;82.91;97451.01;105583;1303;22503;-85
2022/12/28 04:46:00;;;;;;;4.90;2.40;;;;;;;-0.26;83.11;97443.20;105622;1295;22521;-84
2022/12/28 04:48:31;;;;;;;3.50;2.20;;;;;;;-0.25;82.90;97445.52;104040;1303;2009941;-84
2022/12/28 04:51:08;;;;;;;6.40;2.60;;;;;;;-0.25;82.99;97453.05;105581;1303;22469;-84
2022/12/28 04:53:40;;;;;;;4.00;2.70;;;;;;;-0.26;82.77;97454.85;104630;1296;1267154;-84
2022/12/28 04:56:12;;;;;;;4.90;2.40;;;;;;;-0.24;82.93;97453.02;105564;1297;22459;-84
2022/12/28 04:58:45;;;;;;;5.10;3.10;;;;;;;-0.24;83.03;97448.13;102889;1304;2033566;-84
2022/12/28 05:01:19;;;;;;;2.70;2.00;;;;;;;-0.26;83.01;97449.41;105566;1303;25418;-84
2022/12/28 05:03:53;;;;;;;3.50;2.30;;;;;;;-0.28;82.93;97451.43;105703;1303;22511;-85
2022/12/28 05:06:26;;;;;;;5.30;2.70;;;;;;;-0.30;82.90;97448.02;105619;1303;22478;-84
2022/12/28 05:08:57;;;;;;;6.10;2.80;;;;;;;-0.32;82.92;97453.27;101659;1302;5198563;-84
2022/12/28 05:11:30;;;;;;;4.80;2.30;;;;;;;-0.32;82.87;97453.14;105596;1303;25598;-84
2022/12/28 05:14:02;;;;;;;2.80;2.00;;;;;;;-0.33;82.66;97443.52;105800;1300;24259;-84
2022/12/28 05:16:32;;;;;;;5.60;2.50;;;;;;;-0.32;82.70;97430.83;105692;1295;25229;-84
2022/12/28 05:19:04;;;;;;;5.30;2.50;;;;;;;-0.31;82.76;97429.87;102907;1288;2011995;-84
2022/12/28 05:21:35;;;;;;;5.90;2.70;;;;;;;-0.31;82.86;97438.80;105588;1303;24250;-83
2022/12/28 05:24:07;;;;;;;4.40;2.90;;;;;;;-0.33;82.71;97441.44;105685;1285;22473;-84
2022/12/28 05:26:38;;;;;;;4.20;2.40;;;;;;;-0.31;82.82;97444.54;105561;1303;22488;-84
2022/12/28 05:29:09;;;;;;;4.50;2.50;;;;;;;-0.32;82.62;97446.46;103981;1294;2099670;-84
2022/12/28 05:31:41;;;;;;;6.30;3.30;;;;;;;-0.29;82.63;97439.10;105561;1288;22983;-84
2022/12/28 05:34:12;;;;;;;4.70;2.00;;;;;;;-0.28;82.42;97436.38;105586;1295;22469;-84
2022/12/28 05:36:43;;;;;;;4.00;2.10;;;;;;;-0.22;82.30;97438.04;105569;1297;22558;-84
2022/12/28 05:39:15;;;;;;;3.40;2.20;;;;;;;-0.22;82.46;97432.39;103851;1303;2305359;-84
2022/12/28 05:41:46;;;;;;;5.00;2.20;;;;;;;-0.24;82.40;97423.36;105526;1288;22542;-84
2022/12/28 05:44:17;;;;;;;3.60;2.10;;;;;;;-0.28;82.17;97429.05;105556;1303;25367;-84
2022/12/28 05:46:49;;;;;;;4.80;2.30;;;;;;;-0.32;82.13;97431.70;105578;1296;22431;-83
2022/12/28 05:49:20;;;;;;;3.80;2.10;;;;;;;-0.27;82.22;97434.27;102209;1302;2277584;-84
2022/12/28 05:51:54;;;;;;;4.80;2.90;;;;;;;-0.25;82.45;97429.56;105581;1303;23001;-84
2022/12/28 05:54:25;;;;;;;7.30;2.90;;;;;;;-0.26;82.06;97425.88;105593;1303;24257;-83
2022/12/28 05:56:57;;;;;;;5.30;2.60;;;;;;;-0.27;82.25;97420.81;104298;1295;1764125;-83
2022/12/28 05:59:28;;;;;;;5.90;2.60;;;;;;;-0.29;82.20;97423.59;104215;1303;1837688;-82
2022/12/28 06:01:59;;;;;;;5.50;3.10;;;;;;;-0.28;82.42;97427.84;105523;1287;22521;-84
2022/12/28 06:04:30;;;;;;;5.80;2.60;;;;;;;-0.28;82.34;97427.33;105553;1301;22593;-84
2022/12/28 06:07:01;;;;;;;6.00;3.10;;;;;;;-0.29;82.33;97430.16;104323;1303;1748781;-84
2022/12/28 06:09:33;;;;;;;7.10;2.50;;;;;;;-0.30;82.24;97421.30;105656;1302;52879;-84
2022/12/28 06:12:05;;;;;;;7.30;3.50;;;;;;;-0.32;82.32;97424.25;105761;1302;22495;-84
2022/12/28 06:14:36;;;;;;;6.20;3.10;;;;;;;-0.34;81.95;97417.91;105689;1287;25339;-84
2022/12/28 06:17:07;;;;;;;8.00;2.70;;;;;;;-0.36;82.20;97409.52;105624;1282;83563;-85
2022/12/28 06:19:39;;;;;;;4.60;2.60;;;;;;;-0.38;82.27;97409.55;105578;1303;22478;-84
2022/12/28 06:22:10;;;;;;;4.20;2.20;;;;;;;-0.37;82.30;97405.63;105653;1289;22463;-84
2022/12/28 06:24:41;;;;;;;5.80;2.50;;;;;;;-0.33;82.04;97406.73;105630;1285;24439;-85
2022/12/28 06:27:12;;;;;;;5.20;2.40;;;;;;;-0.30;82.17;97404.09;104227;1302;1784223;-85
2022/12/28 06:29:44;;;;;;;4.60;2.30;;;;;;;-0.25;81.82;97399.34;104202;1298;1850985;-84
2022/12/28 06:32:16;;;;;;;4.30;2.50;;;;;;;-0.22;81.97;97393.23;105582;1302;22471;-84
2022/12/28 06:34:47;;;;;;;5.50;2.30;;;;;;;-0.21;81.91;97394.31;105563;1295;25374;-84
2022/12/28 06:37:18;;;;;;;4.00;2.50;;;;;;;-0.19;81.77;97386.05;100256;1303;5307781;-85
2022/12/28 06:39:49;;;;;;;6.10;2.80;;;;;;;-0.17;82.10;97386.83;104214;1303;1857481;-84
2022/12/28 06:42:20;;;;;;;3.80;2.10;;;;;;;-0.13;81.66;97380.41;105594;1298;26528;-85
2022/12/28 06:44:52;;;;;;;4.90;2.20;;;;;;;-0.09;81.56;97384.01;105585;1303;22954;-85
2022/12/28 06:47:23;;;;;;;4.00;2.30;;;;;;;-0.06;81.42;97377.04;102250;1298;4463592;-84
2022/12/28 06:49:55;;;;;;;6.20;2.90;;;;;;;-0.04;81.45;97382.02;105533;1303;22978;-85
2022/12/28 06:52:26;;;;;;;5.40;2.90;;;;;;;0.01;81.03;97375.28;105600;1289;22538;-84
2022/12/28 06:54:57;;;;;;;8.00;3.50;;;;;;;0.02;81.08;97379.83;105576;1303;22480;-84
2022/12/28 06:57:32;;;;;;;6.00;3.10;;;;;;;0.03;81.12;97380.70;102834;1303;2074756;-84
2022/12/28 07:00:04;;;;;;;5.30;2.90;;;;;;;0.06;81.10;97374.42;104370;1302;1648038;-84
2022/12/28 07:02:36;;;;;;;6.30;2.70;;;;;;;0.10;80.77;97374.80;105777;1292;22538;-85
2022/12/28 07:05:07;;;;;;;4.90;2.70;;;;;;;0.15;80.92;97371.73;105777;1303;23066;-85
2022/12/28 07:07:38;;;;;;;5.60;2.20;;;;;;;0.21;80.51;97365.72;101720;1303;5503436;-84
2022/12/28 07:10:13;;;;;;;5.80;2.50;;;;;;;0.27;80.41;97365.09;105618;1303;23143;-84
2022/12/28 07:12:44;;;;;;;4.70;2.60;;;;;;;0.32;80.54;97358.90;105569;1282;22474;-85
2022/12/28 07:15:16;;;;;;;2.40;1.50;;;;;;;0.38;80.13;97354.90;105513;1286;22466;-85
2022/12/28 07:17:47;;;;;;;2.70;2.20;;;;;;;0.62;80.04;97347.65;99162;1303;6525121;-85
2022/12/28 07:20:19;;;;;;;4.50;2.40;;;;;;;0.96;79.55;97348.77;104202;1303;1862417;-85
2022/12/28 07:22:51;;;;;;;4.40;2.20;;;;;;;1.26;78.87;97348.46;105601;1288;22465;-85
2022/12/28 07:25:23;;;;;;;2.70;1.80;;;;;;;1.52;78.15;97346.61;105578;1300;22514;-86
2022/12/28 07:27:54;;;;;;;3.40;1.90;;;;;;;1.61;77.23;97342.61;104222;1303;1766291;-85
2022/12/28 07:30:25;;;;;;;4.30;1.60;;;;;;;1.56;76.55;97342.95;104284;1295;1766860;-84
2022/12/28 07:32:56;;;;;;;3.50;1.90;;;;;;;1.58;76.09;97333.66;105573;1294;22573;-85
2022/12/28 07:35:28;;;;;;;4.50;2.10;;;;;;;1.63;75.64;97329.83;105587;1302;26559;-85
2022/12/28 07:38:02;;;;;;;4.00;1.90;;;;;;;1.68;75.02;97328.20;105543;1281;24874;-85
2022/12/28 07:40:33;;;;;;;5.00;2.20;;;;;;;1.74;74.34;97316.90;101522;1298;5469142;-85
2022/12/28 07:43:06;;;;;;;5.30;2.00;;;;;;;1.80;73.66;97323.36;105570;1281;23149;-85
2022/12/28 07:45:38;;;;;;;3.80;2.10;;;;;;;1.89;73.29;97326.08;105547;1303;26849;-84
2022/12/28 07:48:11;;;;;;;3.40;1.80;;;;;;;1.93;72.90;97322.58;102245;1303;2582840;-85
2022/12/28 07:50:46;;;;;;;4.00;2.00;;;;;;;2.02;72.26;97324.23;105474;1298;70663;-86
2022/12/28 07:53:18;;;;;;;3.40;2.10;;;;;;;2.04;72.01;97321.93;105548;1303;23171;-84
2022/12/28 07:55:58;;;;;;;6.40;2.40;;;;;;;2.06;71.43;97318.30;105575;1303;22550;-85
2022/12/28 07:58:29;;;;;;;3.90;2.20;;;;;;;2.15;71.59;97323.66;102755;1303;2018447;-84
2022/12/28 08:01:09;;;;;;;6.80;2.40;;;;;;;2.31;71.65;97316.67;101843;1294;5080489;-85
2022/12/28 08:03:41;;;;;;;6.60;2.90;;;;;;;2.34;71.46;97319.99;105554;1288;23476;-84
2022/12/28 08:06:15;;;;;;;3.20;1.80;;;;;;;2.19;70.64;97310.48;105603;1303;22489;-85
2022/12/28 08:08:49;;;;;;;6.20;2.40;;;;;;;2.03;70.79;97310.84;104342;1295;1761208;-85
2022/12/28 08:11:22;;;;;;;5.10;2.40;;;;;;;2.02;70.88;97297.48;105583;1301;22509;-85
2022/12/28 08:13:55;;;;;;;3.10;1.70;;;;;;;1.98;70.94;97299.36;105560;1278;22506;-86
2022/12/28 08:16:29;;;;;;;4.10;2.30;;;;;;;1.94;70.92;97291.98;105707;1303;22517;-86
2022/12/28 08:19:01;;;;;;;6.60;2.40;;;;;;;1.93;71.06;97287.13;104268;1304;1764454;-86
2022/12/28 08:21:34;;;;;;;4.20;2.30;;;;;;;1.88;70.68;97282.52;105606;1302;22547;-86
2022/12/28 08:24:09;;;;;;;3.90;1.90;;;;;;;1.83;70.95;97288.48;105771;1303;25494;-87
2022/12/28 08:26:42;;;;;;;5.10;2.10;;;;;;;1.83;71.43;97297.73;105570;1295;23328;-86
2022/12/28 08:29:17;;;;;;;3.40;1.90;;;;;;;1.86;71.46;97301.48;104211;1303;1779217;-86
2022/12/28 08:31:51;;;;;;;3.40;1.90;;;;;;;1.87;71.34;97295.77;105584;1296;24195;-87
2022/12/28 08:34:25;;;;;;;3.90;2.00;;;;;;;1.88;71.49;97301.27;105592;1303;23352;-86
2022/12/28 08:36:58;;;;;;;5.90;2.50;;;;;;;1.89;71.38;97295.39;105545;1303;22478;-85
2022/12/28 08:39:29;;;;;;;4.90;2.30;;;;;;;1.89;71.18;97290.08;105470;1297;23961;-85
2022/12/28 08:42:04;;;;;;;4.30;2.10;;;;;;;1.90;71.33;97297.80;105566;1303;22497;-85
2022/12/28 08:44:36;;;;;;;4.80;2.60;;;;;;;1.92;71.11;97301.69;105549;1303;22482;-86
2022/12/28 08:47:10;;;;;;;4.00;2.20;;;;;;;1.98;71.28;97293.19;105581;1303;22639;-87
2022/12/28 08:49:43;;;;;;;3.90;2.30;;;;;;;2.03;71.08;97297.84;104293;1284;1772868;-85
2022/12/28 08:52:16;;;;;;;7.00;2.70;;;;;;;2.08;71.12;97292.54;105626;1297;22619;-85
2022/12/28 08:54:48;;;;;;;5.40;2.40;;;;;;;2.19;70.98;97302.16;105557;1302;24254;-85
2022/12/28 08:57:24;;;;;;;3.90;2.20;;;;;;;2.23;70.48;97305.98;105589;1303;22724;-86
2022/12/28 08:59:56;;;;;;;3.20;2.10;;;;;;;2.27;70.36;97301.54;98235;1297;4597945;-86
2022/12/28 09:02:29;;;;;;;5.50;2.00;;;;;;;2.37;70.47;97294.35;105566;1290;22460;-85
2022/12/28 09:05:00;;;;;;;5.80;2.80;;;;;;;2.46;70.16;97299.73;105557;1303;25142;-86
2022/12/28 09:07:32;;;;;;;5.20;2.40;;;;;;;2.58;70.24;97293.64;105770;1295;26626;-86
2022/12/28 09:10:04;;;;;;;4.80;2.60;;;;;;;2.67;69.65;97292.69;105493;1289;92247;-86
2022/12/28 09:12:36;;;;;;;8.00;2.70;;;;;;;2.68;69.79;97287.97;105586;1303;22487;-86
2022/12/28 09:15:10;;;;;;;6.00;2.00;;;;;;;2.75;69.54;97285.52;105589;1303;22477;-86
2022/12/28 09:17:46;;;;;;;4.90;2.30;;;;;;;2.83;69.35;97284.73;105474;1298;71127;-85
2022/12/28 09:20:18;;;;;;;3.60;1.60;;;;;;;2.91;69.24;97280.23;104079;1303;2025739;-86
2022/12/28 09:22:50;;;;;;;5.60;2.10;;;;;;;3.00;69.29;97276.64;105708;1295;22737;-86
2022/12/28 09:25:22;;;;;;;5.40;2.30;;;;;;;3.14;69.04;97277.82;105555;1298;24341;-88
2022/12/28 09:27:56;;;;;;;3.10;1.80;;;;;;;3.28;68.58;97270.73;105451;1274;27098;-85
2022/12/28 09:30:30;;;;;;;3.10;1.70;;;;;;;3.38;68.20;97268.41;104353;1302;1798200;-85
2022/12/28 09:35:51;;;;;;;5.40;2.20;;;;;;;3.48;68.10;97260.85;105714;1294;24010;-85
2022/12/28 09:38:22;;;;;;;8.50;2.20;;;;;;;3.57;67.83;97251.98;104058;1303;2030734;-86
2022/12/28 09:40:54;;;;;;;4.90;2.20;;;;;;;3.60;67.62;97261.34;105538;1303;23734;-86
2022/12/28 09:43:26;;;;;;;5.30;1.90;;;;;;;3.65;67.74;97252.58;105552;1303;22474;-85
2022/12/28 09:45:59;;;;;;;3.60;1.90;;;;;;;3.63;67.32;97260.05;105564;1296;24260;-86
2022/12/28 09:48:31;;;;;;;4.00;2.30;;;;;;;3.63;67.00;97249.05;102111;1303;2599503;-85
2022/12/28 09:51:03;;;;;;;4.10;1.80;;;;;;;3.69;66.93;97252.75;103899;1303;2272676;-85
2022/12/28 09:53:36;;;;;;;3.10;1.50;;;;;;;3.74;66.58;97258.92;105571;1303;22661;-87
2022/12/28 09:56:28;;;;;;;3.90;2.00;;;;;;;3.83;66.51;97250.85;105605;1303;22471;-85
2022/12/28 09:59:00;;;;;;;5.70;2.40;;;;;;;3.89;66.14;97230.60;104240;1295;1776814;-87
2022/12/28 10:01:34;;;;;;;6.10;2.30;;;;;;;3.84;65.73;97248.95;105522;1303;22697;-84
2022/12/28 10:04:05;;;;;;;6.70;2.30;;;;;;;3.80;66.24;97232.89;105723;1303;23273;-85
2022/12/28 10:06:39;;;;;;;3.90;1.80;;;;;;;3.80;66.08;97231.15;105605;1303;22457;-86
2022/12/28 10:09:18;;;;;;;4.40;2.20;;;;;;;3.85;66.01;97230.61;102382;1298;2370086;-85
2022/12/28 10:11:49;;;;;;;5.10;1.80;;;;;;;4.03;66.51;97232.16;103724;1300;2512169;-85
2022/12/28 10:14:32;;;;;;;3.70;2.00;;;;;;;4.11;65.85;97233.48;105545;1295;22480;-84
2022/12/28 10:17:06;;;;;;;4.30;2.50;;;;;;;4.09;65.51;97229.55;105576;1303;22794;-84
2022/12/28 10:19:37;;;;;;;4.50;2.10;;;;;;;4.15;65.35;97227.29;103265;1303;1589813;-86
2022/12/28 10:22:13;;;;;;;5.20;2.00;;;;;;;4.17;64.88;97225.27;105559;1303;22467;-84
2022/12/28 10:24:45;;;;;;;3.40;2.30;;;;;;;4.14;65.30;97218.50;105744;1303;23306;-85
2022/12/28 10:27:23;;;;;;;4.50;1.60;;;;;;;4.16;65.20;97215.23;105737;1296;22569;-85
2022/12/28 10:29:54;;;;;;;5.70;2.10;;;;;;;4.19;65.11;97217.88;103093;1302;1808872;-84
2022/12/28 10:32:26;;;;;;;5.40;2.40;;;;;;;4.23;64.76;97214.65;105748;1303;22488;-85
2022/12/28 10:34:59;;;;;;;2.10;1.20;;;;;;;4.25;65.11;97206.59;105591;1278;23794;-85
2022/12/28 10:37:36;;;;;;;2.30;1.60;;;;;;;4.27;64.77;97201.66;105803;1303;23091;-85
2022/12/28 10:40:23;;;;;;;4.90;1.80;;;;;;;4.31;64.65;97201.40;104487;1300;1642200;-84
2022/12/28 10:42:56;;;;;;;3.50;1.50;;;;;;;4.32;64.39;97202.79;105560;1302;22525;-85
2022/12/28 10:45:36;;;;;;;1.80;1.00;;;;;;;4.31;64.22;97194.58;105587;1282;22485;-84
2022/12/28 10:48:19;;;;;;;2.20;1.40;;;;;;;4.31;63.78;97193.36;105580;1288;22469;-84
2022/12/28 10:50:56;;;;;;;3.50;1.10;;;;;;;4.31;63.51;97195.58;105540;1297;22460;-84
2022/12/28 10:53:32;;;;;;;3.30;1.20;;;;;;;4.30;63.20;97192.09;105539;1303;24397;-84
2022/12/28 10:56:15;;;;;;;2.80;1.40;;;;;;;4.29;62.89;97192.31;105592;1303;22466;-84
2022/12/28 10:58:47;;;;;;;1.90;1.30;;;;;;;4.28;63.40;97190.83;105599;1303;22512;-84
2022/12/28 11:01:25;;;;;;;0.80;0.60;;;;;;;4.29;63.57;97186.34;105567;1303;23856;-84
2022/12/28 11:04:06;;;;;;;1.80;1.20;;;;;;;4.28;63.03;97185.74;105604;1303;22507;-84
2022/12/28 11:06:50;;;;;;;4.90;1.30;;;;;;;4.28;63.04;97189.10;105756;1303;23286;-86
2022/12/28 11:09:25;;;;;;;2.40;1.40;;;;;;;4.28;62.79;97187.24;105516;1301;25271;-86
2022/12/28 11:12:16;;;;;;;2.40;1.20;;;;;;;4.26;62.42;97183.42;105586;1296;25002;-89
2022/12/28 11:14:47;;;;;;;2.20;1.30;;;;;;;4.25;61.49;97167.98;105569;1303;22476;-87
2022/12/28 11:17:22;;;;;;;1.40;1.00;;;;;;;4.24;61.06;97158.77;105554;1281;22475;-85
2022/12/28 11:19:56;;;;;;;1.50;1.00;;;;;;;4.22;61.24;97147.45;105528;1271;23438;-86
2022/12/28 11:22:30;;;;;;;3.00;1.10;;;;;;;4.21;61.06;97143.77;105742;1303;22467;-85
2022/12/28 11:25:02;;;;;;;1.50;1.00;;;;;;;4.18;60.83;97157.72;105588;1303;22898;-87
2022/12/28 11:27:36;;;;;;;2.10;1.30;;;;;;;4.17;61.71;97149.07;105569;1303;22473;-87
2022/12/28 11:30:13;;;;;;;1.80;0.90;;;;;;;4.16;61.50;97153.95;103832;1302;2272339;-87
2022/12/28 11:32:51;;;;;;;2.10;0.90;;;;;;;4.16;61.63;97152.47;105657;1303;22473;-87
2022/12/28 11:35:27;;;;;;;2.80;1.10;;;;;;;4.19;61.69;97152.83;105621;1303;22522;-88
2022/12/28 11:38:04;;;;;;;2.60;1.50;;;;;;;4.21;61.35;97148.00;105818;1296;22480;-86
2022/12/28 11:40:54;;;;;;;2.70;0.90;;;;;;;4.22;61.24;97125.21;98981;1304;5454953;-86
2022/12/28 11:43:51;;;;;;;6.70;3.60;;;;;;;4.21;61.16;97100.35;105546;1303;22490;-86
2022/12/28 11:46:56;;;;;;;1.70;1.20;;;;;;;4.15;61.32;97090.12;105555;1303;23308;-88
2022/12/28 11:49:36;;;;;;;2.00;1.40;;;;;;;4.14;61.46;97090.70;101426;1303;5566189;-88
2022/12/28 11:52:44;;;;;;;2.90;1.60;;;;;;;4.13;61.25;97082.72;105552;1289;22500;-88
2022/12/28 11:55:51;;;;;;;3.20;1.00;;;;;;;4.16;61.27;97088.92;105559;1301;22579;-87
2022/12/28 11:58:51;;;;;;;4.90;1.70;;;;;;;4.16;61.19;97070.23;105734;1303;24264;-87
2022/12/28 12:01:39;;;;;;;;;;;;;;;4.16;61.28;97071.45;104067;1288;2071696;-87
2022/12/28 12:04:31;;;;;;;0.90;0.80;;;;;;;4.18;61.25;97069.91;105746;1302;24255;-90
2022/12/28 12:07:48;;;;;;;4.60;1.40;;;;;;;4.17;61.53;97071.72;105653;1303;22558;-91
2022/12/28 12:10:37;;;;;;;2.50;1.50;;;;;;;4.17;60.98;97061.55;105492;1297;108239;-90
2022/12/28 12:13:39;;;;;;;2.60;1.50;;;;;;;4.20;61.02;97058.23;105710;1303;22524;-86
2022/12/28 12:16:21;;;;;;;3.10;1.70;;;;;;;4.26;61.17;97060.72;105552;1303;22550;-90
2022/12/28 12:18:57;;;;;;;3.60;1.70;;;;;;;4.33;60.97;97049.98;105668;1281;48849;-88
2022/12/28 12:21:36;;;;;;;6.10;2.20;;;;;;;4.38;60.97;97044.83;105550;1302;22639;-88
2022/12/28 12:24:25;;;;;;;6.70;2.50;;;;;;;4.41;61.25;97046.52;105555;1303;22497;-89
2022/12/28 12:27:01;;;;;;;4.50;2.00;;;;;;;4.43;61.36;97056.29;105563;1303;22667;-91
2022/12/28 12:29:40;;;;;;;3.20;1.70;;;;;;;4.46;60.79;97040.95;104170;1281;1793218;-88
2022/12/28 12:32:21;;;;;;;3.00;1.70;;;;;;;4.59;60.93;97023.98;104218;1297;1844310;-88
2022/12/28 12:34:56;;;;;;;2.90;1.40;;;;;;;4.80;60.31;97032.82;105573;1287;22521;-87